sensor_id;sensor_type;location;lat;lon;timestamp;pressure;altitude;pressure_sealevel;temperature;humidity
60583;BME280;46415;47.536;19.066;2022-07-23T00:01:14;100315.53;;;25.29;54.02
60583;BME280;46415;47.536;19.066;2022-07-23T00:04:23;100319.41;;;25.43;53.76
60583;BME280;46415;47.536;19.066;2022-07-23T00:07:26;100315.88;;;25.26;54.65
60583;BME280;46415;47.536;19.066;2022-07-23T00:10:29;100308.88;;;25.17;54.99
60583;BME280;46415;47.536;19.066;2022-07-23T00:13:31;100312.53;;;25.08;55.06
60583;BME280;46415;47.536;19.066;2022-07-23T00:16:34;100307.16;;;25.00;55.77
60583;BME280;46415;47.536;19.066;2022-07-23T00:19:36;100313.62;;;24.89;55.89
60583;BME280;46415;47.536;19.066;2022-07-23T00:22:49;100310.72;;;24.83;56.04
60583;BME280;46415;47.536;19.066;2022-07-23T00:25:53;100316.38;;;24.88;55.21
60583;BME280;46415;47.536;19.066;2022-07-23T00:28:55;100308.06;;;24.83;55.33
60583;BME280;46415;47.536;19.066;2022-07-23T00:31:58;100311.37;;;24.76;55.31
60583;BME280;46415;47.536;19.066;2022-07-23T00:35:01;100320.81;;;24.71;55.56
60583;BME280;46415;47.536;19.066;2022-07-23T00:38:04;100323.75;;;24.68;55.54
60583;BME280;46415;47.536;19.066;2022-07-23T00:41:07;100325.72;;;24.58;56.10
60583;BME280;46415;47.536;19.066;2022-07-23T00:44:18;100328.84;;;24.53;56.17
60583;BME280;46415;47.536;19.066;2022-07-23T00:47:21;100326.81;;;24.47;56.92
60583;BME280;46415;47.536;19.066;2022-07-23T00:50:24;100333.22;;;24.36;57.13
60583;BME280;46415;47.536;19.066;2022-07-23T00:53:27;100325.97;;;24.21;57.89
60583;BME280;46415;47.536;19.066;2022-07-23T00:56:30;100327.88;;;24.11;58.35
60583;BME280;46415;47.536;19.066;2022-07-23T00:59:33;100326.66;;;24.05;58.79
60583;BME280;46415;47.536;19.066;2022-07-23T01:02:36;100328.50;;;24.05;58.95
60583;BME280;46415;47.536;19.066;2022-07-23T01:05:39;100327.66;;;24.04;59.58
60583;BME280;46415;47.536;19.066;2022-07-23T01:08:42;100326.31;;;24.00;59.61
60583;BME280;46415;47.536;19.066;2022-07-23T01:11:45;100327.75;;;23.94;60.35
60583;BME280;46415;47.536;19.066;2022-07-23T01:14:58;100327.34;;;23.89;60.64
60583;BME280;46415;47.536;19.066;2022-07-23T01:18:02;100333.66;;;23.88;61.01
60583;BME280;46415;47.536;19.066;2022-07-23T01:21:05;100324.87;;;23.88;61.33
60583;BME280;46415;47.536;19.066;2022-07-23T01:24:09;100323.44;;;23.93;61.33
60583;BME280;46415;47.536;19.066;2022-07-23T01:27:13;100319.63;;;23.96;61.33
60583;BME280;46415;47.536;19.066;2022-07-23T01:30:16;100322.06;;;24.07;60.87
60583;BME280;46415;47.536;19.066;2022-07-23T01:33:19;100319.63;;;23.96;61.16
60583;BME280;46415;47.536;19.066;2022-07-23T01:36:22;100324.69;;;23.89;61.26
60583;BME280;46415;47.536;19.066;2022-07-23T01:39:25;100331.91;;;23.79;61.90
60583;BME280;46415;47.536;19.066;2022-07-23T01:42:28;100320.81;;;23.76;61.71
60583;BME280;46415;47.536;19.066;2022-07-23T01:45:33;100322.75;;;23.74;61.71
60583;BME280;46415;47.536;19.066;2022-07-23T01:48:36;100323.22;;;23.69;61.88
60583;BME280;46415;47.536;19.066;2022-07-23T01:51:42;100321.78;;;23.57;60.93
60583;BME280;46415;47.536;19.066;2022-07-23T01:55:03;100323.91;;;23.53;60.72
60583;BME280;46415;47.536;19.066;2022-07-23T01:58:05;100322.06;;;23.54;60.58
60583;BME280;46415;47.536;19.066;2022-07-23T02:01:08;100316.62;;;23.55;60.32
60583;BME280;46415;47.536;19.066;2022-07-23T02:04:12;100316.94;;;23.52;60.74
60583;BME280;46415;47.536;19.066;2022-07-23T02:07:15;100324.34;;;23.49;60.62
60583;BME280;46415;47.536;19.066;2022-07-23T02:10:18;100323.69;;;23.47;60.19
60583;BME280;46415;47.536;19.066;2022-07-23T02:13:21;100316.31;;;23.41;60.04
60583;BME280;46415;47.536;19.066;2022-07-23T02:16:23;100314.94;;;23.37;60.10
60583;BME280;46415;47.536;19.066;2022-07-23T02:19:26;100307.28;;;23.34;60.19
60583;BME280;46415;47.536;19.066;2022-07-23T02:22:29;100307.56;;;23.31;60.23
60583;BME280;46415;47.536;19.066;2022-07-23T02:25:33;100310.81;;;23.25;60.70
60583;BME280;46415;47.536;19.066;2022-07-23T02:28:37;100304.03;;;23.22;60.91
60583;BME280;46415;47.536;19.066;2022-07-23T02:31:40;100311.13;;;23.22;60.86
60583;BME280;46415;47.536;19.066;2022-07-23T02:34:43;100313.66;;;23.23;60.45
60583;BME280;46415;47.536;19.066;2022-07-23T02:37:46;100306.97;;;23.19;61.16
60583;BME280;46415;47.536;19.066;2022-07-23T02:40:50;100312.13;;;23.20;60.80
60583;BME280;46415;47.536;19.066;2022-07-23T02:43:54;100322.56;;;23.22;62.27
60583;BME280;46415;47.536;19.066;2022-07-23T02:46:57;100319.09;;;23.22;62.62
60583;BME280;46415;47.536;19.066;2022-07-23T02:50:00;100315.59;;;23.21;61.27
60583;BME280;46415;47.536;19.066;2022-07-23T02:53:03;100321.41;;;23.25;60.84
60583;BME280;46415;47.536;19.066;2022-07-23T02:56:06;100321.13;;;23.28;60.65
60583;BME280;46415;47.536;19.066;2022-07-23T02:59:12;100316.53;;;23.30;59.98
60583;BME280;46415;47.536;19.066;2022-07-23T03:02:14;100309.84;;;23.26;60.04
60583;BME280;46415;47.536;19.066;2022-07-23T03:05:17;100306.38;;;23.25;60.05
60583;BME280;46415;47.536;19.066;2022-07-23T03:08:19;100307.75;;;23.29;60.28
60583;BME280;46415;47.536;19.066;2022-07-23T03:11:23;100308.88;;;23.27;60.77
60583;BME280;46415;47.536;19.066;2022-07-23T03:14:26;100322.63;;;23.30;60.87
60583;BME280;46415;47.536;19.066;2022-07-23T03:17:30;100329.59;;;23.31;60.87
60583;BME280;46415;47.536;19.066;2022-07-23T03:20:33;100319.94;;;23.40;60.35
60583;BME280;46415;47.536;19.066;2022-07-23T03:23:36;100325.63;;;23.45;60.36
60583;BME280;46415;47.536;19.066;2022-07-23T03:26:38;100331.47;;;23.48;60.46
60583;BME280;46415;47.536;19.066;2022-07-23T03:29:42;100329.00;;;23.47;59.60
60583;BME280;46415;47.536;19.066;2022-07-23T03:32:45;100336.75;;;23.48;59.31
60583;BME280;46415;47.536;19.066;2022-07-23T03:35:48;100329.94;;;23.46;59.68
60583;BME280;46415;47.536;19.066;2022-07-23T03:38:52;100325.63;;;23.45;59.74
60583;BME280;46415;47.536;19.066;2022-07-23T03:41:55;100321.28;;;23.26;60.66
60583;BME280;46415;47.536;19.066;2022-07-23T03:44:58;100321.03;;;23.19;61.33
60583;BME280;46415;47.536;19.066;2022-07-23T03:48:01;100326.09;;;23.13;62.06
60583;BME280;46415;47.536;19.066;2022-07-23T03:51:04;100331.63;;;23.19;62.00
60583;BME280;46415;47.536;19.066;2022-07-23T03:54:07;100324.75;;;23.27;62.21
60583;BME280;46415;47.536;19.066;2022-07-23T03:57:10;100322.81;;;23.29;64.11
60583;BME280;46415;47.536;19.066;2022-07-23T04:00:13;100328.72;;;23.40;64.48
60583;BME280;46415;47.536;19.066;2022-07-23T04:03:16;100324.91;;;23.52;65.72
60583;BME280;46415;47.536;19.066;2022-07-23T04:06:19;100330.12;;;23.62;65.75
60583;BME280;46415;47.536;19.066;2022-07-23T04:09:22;100331.56;;;23.74;65.61
60583;BME280;46415;47.536;19.066;2022-07-23T04:12:25;100332.84;;;23.88;65.60
60583;BME280;46415;47.536;19.066;2022-07-23T04:15:28;100334.94;;;23.84;66.18
60583;BME280;46415;47.536;19.066;2022-07-23T04:18:30;100338.97;;;23.88;66.22
60583;BME280;46415;47.536;19.066;2022-07-23T04:21:34;100338.19;;;23.78;66.54
60583;BME280;46415;47.536;19.066;2022-07-23T04:24:37;100346.75;;;23.90;66.24
60583;BME280;46415;47.536;19.066;2022-07-23T04:27:40;100348.72;;;24.06;65.87
60583;BME280;46415;47.536;19.066;2022-07-23T04:30:44;100344.91;;;24.08;65.36
60583;BME280;46415;47.536;19.066;2022-07-23T04:33:47;100351.66;;;24.20;64.34
60583;BME280;46415;47.536;19.066;2022-07-23T04:36:50;100339.22;;;24.21;63.75
60583;BME280;46415;47.536;19.066;2022-07-23T04:39:53;100344.53;;;24.21;63.40
60583;BME280;46415;47.536;19.066;2022-07-23T04:42:59;100345.22;;;24.23;64.24
60583;BME280;46415;47.536;19.066;2022-07-23T04:46:02;100337.78;;;24.26;63.46
60583;BME280;46415;47.536;19.066;2022-07-23T04:49:09;100350.62;;;24.39;63.59
60583;BME280;46415;47.536;19.066;2022-07-23T04:52:12;100352.87;;;24.52;62.72
60583;BME280;46415;47.536;19.066;2022-07-23T04:55:15;100352.72;;;24.53;62.12
60583;BME280;46415;47.536;19.066;2022-07-23T04:58:18;100355.69;;;24.50;62.38
60583;BME280;46415;47.536;19.066;2022-07-23T05:01:21;100354.22;;;24.56;60.44
60583;BME280;46415;47.536;19.066;2022-07-23T05:04:24;100359.84;;;24.78;57.89
60583;BME280;46415;47.536;19.066;2022-07-23T05:07:27;100357.44;;;24.93;56.06
60583;BME280;46415;47.536;19.066;2022-07-23T05:10:30;100353.00;;;25.10;55.82
60583;BME280;46415;47.536;19.066;2022-07-23T05:13:32;100350.09;;;25.29;54.56
60583;BME280;46415;47.536;19.066;2022-07-23T05:16:36;100346.47;;;25.46;54.13
60583;BME280;46415;47.536;19.066;2022-07-23T05:19:40;100338.87;;;25.59;53.30
60583;BME280;46415;47.536;19.066;2022-07-23T05:22:43;100341.22;;;25.71;51.73
60583;BME280;46415;47.536;19.066;2022-07-23T05:25:45;100342.37;;;26.00;50.59
60583;BME280;46415;47.536;19.066;2022-07-23T05:28:48;100344.88;;;26.02;51.01
60583;BME280;46415;47.536;19.066;2022-07-23T05:31:52;100341.87;;;26.05;52.16
60583;BME280;46415;47.536;19.066;2022-07-23T05:34:55;100353.19;;;25.99;52.90
60583;BME280;46415;47.536;19.066;2022-07-23T05:37:58;100355.19;;;26.13;52.54
60583;BME280;46415;47.536;19.066;2022-07-23T05:41:01;100347.53;;;26.18;52.58
60583;BME280;46415;47.536;19.066;2022-07-23T05:44:04;100349.72;;;26.31;50.71
60583;BME280;46415;47.536;19.066;2022-07-23T05:47:12;100348.56;;;26.33;50.16
60583;BME280;46415;47.536;19.066;2022-07-23T05:50:16;100348.38;;;26.43;50.93
60583;BME280;46415;47.536;19.066;2022-07-23T05:53:19;100340.84;;;26.63;50.74
60583;BME280;46415;47.536;19.066;2022-07-23T05:56:22;100337.75;;;26.82;49.97
60583;BME280;46415;47.536;19.066;2022-07-23T05:59:25;100338.13;;;27.18;48.78
60583;BME280;46415;47.536;19.066;2022-07-23T06:02:28;100335.19;;;27.36;47.91
60583;BME280;46415;47.536;19.066;2022-07-23T06:05:31;100349.31;;;27.44;48.33
60583;BME280;46415;47.536;19.066;2022-07-23T06:08:34;100346.63;;;27.44;46.79
60583;BME280;46415;47.536;19.066;2022-07-23T06:11:36;100346.09;;;27.57;45.85
60583;BME280;46415;47.536;19.066;2022-07-23T06:14:39;100341.63;;;27.72;44.39
60583;BME280;46415;47.536;19.066;2022-07-23T06:17:42;100326.81;;;27.92;44.02
60583;BME280;46415;47.536;19.066;2022-07-23T06:20:45;100320.38;;;28.01;44.39
60583;BME280;46415;47.536;19.066;2022-07-23T06:23:52;100318.66;;;28.09;44.01
60583;BME280;46415;47.536;19.066;2022-07-23T06:26:54;100327.00;;;28.28;44.06
60583;BME280;46415;47.536;19.066;2022-07-23T06:29:57;100319.91;;;28.50;43.18
60583;BME280;46415;47.536;19.066;2022-07-23T06:33:00;100322.03;;;28.69;42.21
60583;BME280;46415;47.536;19.066;2022-07-23T06:36:04;100319.38;;;28.69;42.23
60583;BME280;46415;47.536;19.066;2022-07-23T06:39:08;100320.19;;;28.85;42.18
60583;BME280;46415;47.536;19.066;2022-07-23T06:42:11;100324.34;;;29.02;41.50
60583;BME280;46415;47.536;19.066;2022-07-23T06:45:17;100311.59;;;29.18;41.02
60583;BME280;46415;47.536;19.066;2022-07-23T06:48:22;100316.44;;;29.30;40.68
60583;BME280;46415;47.536;19.066;2022-07-23T06:51:25;100308.31;;;29.38;40.34
60583;BME280;46415;47.536;19.066;2022-07-23T06:54:28;100321.13;;;29.63;39.82
60583;BME280;46415;47.536;19.066;2022-07-23T06:57:30;100314.34;;;29.68;39.39
60583;BME280;46415;47.536;19.066;2022-07-23T07:00:36;100318.56;;;29.77;39.72
60583;BME280;46415;47.536;19.066;2022-07-23T07:03:39;100317.72;;;29.97;39.21
60583;BME280;46415;47.536;19.066;2022-07-23T07:06:42;100312.25;;;30.06;38.80
60583;BME280;46415;47.536;19.066;2022-07-23T07:09:44;100310.44;;;30.13;39.07
60583;BME280;46415;47.536;19.066;2022-07-23T07:12:50;100304.97;;;30.27;38.26
60583;BME280;46415;47.536;19.066;2022-07-23T07:15:52;100307.87;;;30.26;38.75
60583;BME280;46415;47.536;19.066;2022-07-23T07:18:55;100299.59;;;30.49;38.38
60583;BME280;46415;47.536;19.066;2022-07-23T07:21:58;100300.75;;;30.74;38.00
60583;BME280;46415;47.536;19.066;2022-07-23T07:25:01;100293.00;;;30.92;37.72
60583;BME280;46415;47.536;19.066;2022-07-23T07:28:03;100289.16;;;31.08;37.34
60583;BME280;46415;47.536;19.066;2022-07-23T07:31:06;100289.56;;;31.11;36.68
60583;BME280;46415;47.536;19.066;2022-07-23T07:34:09;100287.94;;;31.23;36.27
60583;BME280;46415;47.536;19.066;2022-07-23T07:37:12;100289.81;;;31.36;36.20
60583;BME280;46415;47.536;19.066;2022-07-23T07:40:15;100291.87;;;31.28;36.20
60583;BME280;46415;47.536;19.066;2022-07-23T07:43:18;100285.72;;;31.47;36.44
60583;BME280;46415;47.536;19.066;2022-07-23T07:46:20;100284.75;;;31.74;35.89
60583;BME280;46415;47.536;19.066;2022-07-23T07:49:23;100288.66;;;31.91;34.77
60583;BME280;46415;47.536;19.066;2022-07-23T07:52:27;100290.91;;;32.08;34.83
60583;BME280;46415;47.536;19.066;2022-07-23T07:55:30;100283.28;;;32.18;34.68
60583;BME280;46415;47.536;19.066;2022-07-23T07:58:33;100282.44;;;32.24;34.27
60583;BME280;46415;47.536;19.066;2022-07-23T08:01:36;100282.00;;;32.40;33.94
60583;BME280;46415;47.536;19.066;2022-07-23T08:04:39;100281.97;;;32.53;34.06
60583;BME280;46415;47.536;19.066;2022-07-23T08:07:41;100274.66;;;32.73;33.85
60583;BME280;46415;47.536;19.066;2022-07-23T08:10:44;100275.63;;;32.92;33.38
60583;BME280;46415;47.536;19.066;2022-07-23T08:13:46;100284.81;;;33.16;32.15
60583;BME280;46415;47.536;19.066;2022-07-23T08:16:49;100281.56;;;33.39;32.12
60583;BME280;46415;47.536;19.066;2022-07-23T08:20:14;100286.31;;;33.43;32.66
60583;BME280;46415;47.536;19.066;2022-07-23T08:23:17;100268.03;;;33.52;30.57
60583;BME280;46415;47.536;19.066;2022-07-23T08:26:21;100274.16;;;33.90;29.89
60583;BME280;46415;47.536;19.066;2022-07-23T08:29:24;100273.69;;;34.18;29.41
60583;BME280;46415;47.536;19.066;2022-07-23T08:32:28;100268.34;;;34.36;28.52
60583;BME280;46415;47.536;19.066;2022-07-23T08:35:48;100265.56;;;34.61;28.54
60583;BME280;46415;47.536;19.066;2022-07-23T08:38:52;100272.75;;;34.86;28.37
60583;BME280;46415;47.536;19.066;2022-07-23T08:41:55;100269.09;;;34.62;28.35
60583;BME280;46415;47.536;19.066;2022-07-23T08:44:58;100269.81;;;34.87;27.91
60583;BME280;46415;47.536;19.066;2022-07-23T08:48:01;100276.56;;;34.60;27.37
60583;BME280;46415;47.536;19.066;2022-07-23T08:51:07;100269.22;;;34.67;26.64
60583;BME280;46415;47.536;19.066;2022-07-23T08:54:10;100264.66;;;34.86;27.10
60583;BME280;46415;47.536;19.066;2022-07-23T08:57:14;100263.34;;;35.18;26.92
60583;BME280;46415;47.536;19.066;2022-07-23T09:00:17;100262.50;;;35.36;25.89
60583;BME280;46415;47.536;19.066;2022-07-23T09:03:25;100261.59;;;35.53;25.57
60583;BME280;46415;47.536;19.066;2022-07-23T09:06:29;100257.69;;;35.38;25.55
60583;BME280;46415;47.536;19.066;2022-07-23T09:09:31;100247.13;;;35.48;25.62
60583;BME280;46415;47.536;19.066;2022-07-23T09:12:36;100258.34;;;35.63;25.45
60583;BME280;46415;47.536;19.066;2022-07-23T09:15:48;100250.13;;;35.81;25.29
60583;BME280;46415;47.536;19.066;2022-07-23T09:18:57;100246.84;;;36.14;25.14
60583;BME280;46415;47.536;19.066;2022-07-23T09:22:17;100246.22;;;36.35;24.79
60583;BME280;46415;47.536;19.066;2022-07-23T09:25:20;100250.31;;;36.50;24.60
60583;BME280;46415;47.536;19.066;2022-07-23T09:28:22;100248.78;;;36.54;24.68
60583;BME280;46415;47.536;19.066;2022-07-23T09:31:31;100235.59;;;36.57;24.81
60583;BME280;46415;47.536;19.066;2022-07-23T09:34:36;100239.22;;;36.74;24.68
60583;BME280;46415;47.536;19.066;2022-07-23T09:38:00;100238.44;;;36.91;24.63
60583;BME280;46415;47.536;19.066;2022-07-23T09:41:09;100238.59;;;37.01;24.54
60583;BME280;46415;47.536;19.066;2022-07-23T09:44:17;100243.13;;;36.95;24.33
60583;BME280;46415;47.536;19.066;2022-07-23T09:47:31;100243.53;;;36.87;24.58
60583;BME280;46415;47.536;19.066;2022-07-23T09:50:37;100230.22;;;37.14;23.78
60583;BME280;46415;47.536;19.066;2022-07-23T09:53:39;100220.47;;;37.13;23.82
60583;BME280;46415;47.536;19.066;2022-07-23T09:56:42;100228.97;;;37.05;24.32
60583;BME280;46415;47.536;19.066;2022-07-23T09:59:45;100223.75;;;37.15;23.61
60583;BME280;46415;47.536;19.066;2022-07-23T10:02:53;100216.87;;;37.24;23.84
60583;BME280;46415;47.536;19.066;2022-07-23T10:06:04;100217.03;;;37.51;23.50
60583;BME280;46415;47.536;19.066;2022-07-23T10:09:13;100211.50;;;37.57;23.33
60583;BME280;46415;47.536;19.066;2022-07-23T10:12:21;100216.97;;;37.63;23.20
60583;BME280;46415;47.536;19.066;2022-07-23T10:15:29;100213.25;;;37.52;23.12
60583;BME280;46415;47.536;19.066;2022-07-23T10:18:32;100211.78;;;37.61;23.05
60583;BME280;46415;47.536;19.066;2022-07-23T10:21:44;100198.81;;;37.80;22.91
60583;BME280;46415;47.536;19.066;2022-07-23T10:38:50;100191.12;;;38.10;22.69
60583;BME280;46415;47.536;19.066;2022-07-23T10:42:08;100189.53;;;38.14;22.42
60583;BME280;46415;47.536;19.066;2022-07-23T10:45:28;100188.63;;;38.25;22.32
60583;BME280;46415;47.536;19.066;2022-07-23T10:48:31;100184.13;;;38.58;21.82
60583;BME280;46415;47.536;19.066;2022-07-23T10:51:34;100175.53;;;38.66;21.38
60583;BME280;46415;47.536;19.066;2022-07-23T10:54:37;100180.03;;;38.55;21.73
60583;BME280;46415;47.536;19.066;2022-07-23T10:57:50;100167.47;;;38.76;21.81
60583;BME280;46415;47.536;19.066;2022-07-23T11:00:53;100166.09;;;39.00;21.44
60583;BME280;46415;47.536;19.066;2022-07-23T11:03:56;100167.22;;;39.04;21.31
60583;BME280;46415;47.536;19.066;2022-07-23T11:10:06;100163.53;;;39.52;20.77
60583;BME280;46415;47.536;19.066;2022-07-23T11:13:31;100156.03;;;39.75;20.50
60583;BME280;46415;47.536;19.066;2022-07-23T11:16:46;100158.47;;;39.66;20.18
60583;BME280;46415;47.536;19.066;2022-07-23T11:23:15;100153.72;;;39.88;19.90
60583;BME280;46415;47.536;19.066;2022-07-23T11:29:40;100138.87;;;39.27;20.06
60583;BME280;46415;47.536;19.066;2022-07-23T11:32:49;100140.53;;;39.65;19.95
60583;BME280;46415;47.536;19.066;2022-07-23T11:36:02;100141.13;;;39.77;19.50
60583;BME280;46415;47.536;19.066;2022-07-23T11:39:06;100134.84;;;39.72;19.54
60583;BME280;46415;47.536;19.066;2022-07-23T11:42:09;100137.31;;;39.73;19.81
60583;BME280;46415;47.536;19.066;2022-07-23T11:45:12;100131.28;;;39.66;19.50
60583;BME280;46415;47.536;19.066;2022-07-23T11:48:22;100127.56;;;39.35;19.41
60583;BME280;46415;47.536;19.066;2022-07-23T11:51:25;100120.41;;;39.24;19.57
60583;BME280;46415;47.536;19.066;2022-07-23T11:54:29;100118.63;;;39.87;19.35
60583;BME280;46415;47.536;19.066;2022-07-23T11:57:35;100117.47;;;40.35;18.45
60583;BME280;46415;47.536;19.066;2022-07-23T12:00:40;100116.75;;;40.75;18.57
60583;BME280;46415;47.536;19.066;2022-07-23T12:03:52;100101.41;;;40.28;18.18
60583;BME280;46415;47.536;19.066;2022-07-23T12:06:55;100097.63;;;40.45;18.14
60583;BME280;46415;47.536;19.066;2022-07-23T12:10:11;100100.53;;;40.18;18.72
60583;BME280;46415;47.536;19.066;2022-07-23T12:13:19;100085.09;;;39.66;19.31
60583;BME280;46415;47.536;19.066;2022-07-23T12:16:22;100091.66;;;39.75;19.73
60583;BME280;46415;47.536;19.066;2022-07-23T12:19:25;100092.34;;;39.08;20.37
60583;BME280;46415;47.536;19.066;2022-07-23T12:22:39;100083.91;;;38.73;20.49
60583;BME280;46415;47.536;19.066;2022-07-23T12:25:44;100072.97;;;38.41;21.01
60583;BME280;46415;47.536;19.066;2022-07-23T12:28:52;100072.81;;;38.26;21.03
60583;BME280;46415;47.536;19.066;2022-07-23T12:31:55;100068.78;;;38.28;21.04
60583;BME280;46415;47.536;19.066;2022-07-23T12:35:06;100060.94;;;38.54;20.76
60583;BME280;46415;47.536;19.066;2022-07-23T12:38:12;100060.50;;;38.99;20.74
60583;BME280;46415;47.536;19.066;2022-07-23T12:41:15;100064.16;;;39.14;20.12
60583;BME280;46415;47.536;19.066;2022-07-23T12:44:18;100059.91;;;38.92;20.25
60583;BME280;46415;47.536;19.066;2022-07-23T12:47:21;100059.25;;;38.48;21.06
60583;BME280;46415;47.536;19.066;2022-07-23T12:50:38;100051.28;;;38.68;20.55
60583;BME280;46415;47.536;19.066;2022-07-23T12:53:48;100060.75;;;38.65;19.97
60583;BME280;46415;47.536;19.066;2022-07-23T12:56:51;100041.09;;;38.26;20.01
60583;BME280;46415;47.536;19.066;2022-07-23T13:00:07;100033.66;;;38.12;20.29
60583;BME280;46415;47.536;19.066;2022-07-23T13:03:21;100030.13;;;38.70;20.07
60583;BME280;46415;47.536;19.066;2022-07-23T13:06:24;100030.34;;;39.37;19.45
60583;BME280;46415;47.536;19.066;2022-07-23T13:09:29;100028.19;;;39.39;19.13
60583;BME280;46415;47.536;19.066;2022-07-23T13:12:34;100031.41;;;39.88;18.55
60583;BME280;46415;47.536;19.066;2022-07-23T13:15:37;100020.28;;;40.05;18.10
60583;BME280;46415;47.536;19.066;2022-07-23T13:18:40;100023.56;;;40.07;17.70
60583;BME280;46415;47.536;19.066;2022-07-23T13:21:42;100020.25;;;39.95;18.13
60583;BME280;46415;47.536;19.066;2022-07-23T13:24:46;100018.69;;;40.14;18.36
60583;BME280;46415;47.536;19.066;2022-07-23T13:27:49;100018.38;;;40.01;18.66
60583;BME280;46415;47.536;19.066;2022-07-23T13:30:52;100004.31;;;40.39;18.72
60583;BME280;46415;47.536;19.066;2022-07-23T13:33:55;100003.22;;;40.35;18.65
60583;BME280;46415;47.536;19.066;2022-07-23T13:36:58;100004.78;;;40.06;19.30
60583;BME280;46415;47.536;19.066;2022-07-23T13:40:01;99993.94;;;40.21;19.37
60583;BME280;46415;47.536;19.066;2022-07-23T13:43:22;99997.22;;;40.53;18.81
60583;BME280;46415;47.536;19.066;2022-07-23T13:46:25;99995.28;;;40.18;18.79
60583;BME280;46415;47.536;19.066;2022-07-23T13:49:28;99998.25;;;40.07;18.91
60583;BME280;46415;47.536;19.066;2022-07-23T13:52:31;99991.38;;;39.74;19.26
60583;BME280;46415;47.536;19.066;2022-07-23T13:55:37;99985.00;;;40.35;18.77
60583;BME280;46415;47.536;19.066;2022-07-23T13:58:40;99982.41;;;39.68;18.67
60583;BME280;46415;47.536;19.066;2022-07-23T14:01:43;99985.00;;;39.38;19.33
60583;BME280;46415;47.536;19.066;2022-07-23T14:05:08;99977.22;;;39.67;19.20
60583;BME280;46415;47.536;19.066;2022-07-23T14:08:12;99987.91;;;39.98;18.61
60583;BME280;46415;47.536;19.066;2022-07-23T14:11:16;99982.03;;;38.97;19.17
60583;BME280;46415;47.536;19.066;2022-07-23T14:14:20;99971.50;;;39.01;19.36
60583;BME280;46415;47.536;19.066;2022-07-23T14:17:23;99965.03;;;39.12;19.25
60583;BME280;46415;47.536;19.066;2022-07-23T14:20:28;99957.75;;;39.23;19.34
60583;BME280;46415;47.536;19.066;2022-07-23T14:23:31;99948.22;;;39.87;18.64
60583;BME280;46415;47.536;19.066;2022-07-23T14:26:34;99949.09;;;40.23;17.97
60583;BME280;46415;47.536;19.066;2022-07-23T14:29:37;99943.88;;;40.17;17.95
60583;BME280;46415;47.536;19.066;2022-07-23T14:32:40;99940.66;;;40.50;17.44
60583;BME280;46415;47.536;19.066;2022-07-23T14:35:43;99934.69;;;40.28;16.92
60583;BME280;46415;47.536;19.066;2022-07-23T14:38:46;99917.22;;;39.98;17.36
60583;BME280;46415;47.536;19.066;2022-07-23T14:41:48;99916.16;;;40.10;17.15
60583;BME280;46415;47.536;19.066;2022-07-23T14:44:51;99912.28;;;39.60;17.58
60583;BME280;46415;47.536;19.066;2022-07-23T14:47:54;99907.59;;;39.35;17.43
60583;BME280;46415;47.536;19.066;2022-07-23T14:50:57;99900.72;;;39.23;18.02
60583;BME280;46415;47.536;19.066;2022-07-23T14:53:59;99902.31;;;38.61;18.33
60583;BME280;46415;47.536;19.066;2022-07-23T14:57:03;99899.47;;;38.14;19.26
60583;BME280;46415;47.536;19.066;2022-07-23T15:00:06;99910.78;;;37.79;19.95
60583;BME280;46415;47.536;19.066;2022-07-23T15:03:29;99905.84;;;37.49;19.93
60583;BME280;46415;47.536;19.066;2022-07-23T15:06:41;99903.81;;;37.35;19.55
60583;BME280;46415;47.536;19.066;2022-07-23T15:09:44;99908.72;;;37.16;19.19
60583;BME280;46415;47.536;19.066;2022-07-23T15:12:49;99913.34;;;36.99;19.57
60583;BME280;46415;47.536;19.066;2022-07-23T15:15:52;99913.94;;;36.84;19.79
60583;BME280;46415;47.536;19.066;2022-07-23T15:18:58;99918.88;;;36.54;20.99
60583;BME280;46415;47.536;19.066;2022-07-23T15:22:02;99920.78;;;36.36;21.56
60583;BME280;46415;47.536;19.066;2022-07-23T15:25:08;99926.50;;;36.23;22.04
60583;BME280;46415;47.536;19.066;2022-07-23T15:28:14;99934.56;;;36.07;22.52
60583;BME280;46415;47.536;19.066;2022-07-23T15:31:23;99931.63;;;35.91;22.86
60583;BME280;46415;47.536;19.066;2022-07-23T15:34:30;99914.81;;;35.89;22.44
60583;BME280;46415;47.536;19.066;2022-07-23T15:37:34;99917.25;;;35.74;22.42
60583;BME280;46415;47.536;19.066;2022-07-23T15:40:37;99924.66;;;35.67;22.63
60583;BME280;46415;47.536;19.066;2022-07-23T15:43:41;99930.81;;;35.51;22.29
60583;BME280;46415;47.536;19.066;2022-07-23T15:46:44;99959.50;;;35.29;24.68
60583;BME280;46415;47.536;19.066;2022-07-23T15:49:48;99979.81;;;34.73;26.82
60583;BME280;46415;47.536;19.066;2022-07-23T15:52:50;99994.37;;;34.00;28.63
60583;BME280;46415;47.536;19.066;2022-07-23T15:55:53;99999.59;;;33.47;30.02
60583;BME280;46415;47.536;19.066;2022-07-23T15:58:56;100011.94;;;33.12;30.96
60583;BME280;46415;47.536;19.066;2022-07-23T16:01:59;100003.84;;;32.94;31.39
60583;BME280;46415;47.536;19.066;2022-07-23T16:05:02;99999.09;;;32.64;32.19
60583;BME280;46415;47.536;19.066;2022-07-23T16:08:05;100013.84;;;32.55;32.40
60583;BME280;46415;47.536;19.066;2022-07-23T16:11:08;100038.72;;;32.44;32.94
60583;BME280;46415;47.536;19.066;2022-07-23T16:14:15;100055.19;;;32.23;33.87
60583;BME280;46415;47.536;19.066;2022-07-23T16:17:18;100038.81;;;31.86;33.98